Puerto Natales, Chile
Current Conditions -  °F | °C
As of 11:00 PM on Friday 24 Oct 2014 (Local Time) from SCCI Reporting Station
Scattered Clouds Scattered Clouds  
Wind Chill: 38°   Ceiling: Unl
Heat Index: 46°   Visibility: 6mi
Dew Point: 37°   Wind: 26mph
Humidity: 71%   Direction: 260°W
Pressure: 29.65"   Gusts: NA
Location:  51.73°S, 72.51°W
Report Text: SCCI 250300Z 26023KT 9999 FEW030 SCT120 08/03 Q1004 NOSIG
Loading
Personal Weather Stations






























Interactive Weather Map
Tropical Storm Tracking
New forecast layout! Learn more

10-Day Weather Forecast

Advertisements
Track Severe Weather on mobile